createdAt,value
2018-06-14T00:02:28.431Z,14.48
2018-06-14T00:04:56.830Z,14.55
2018-06-14T00:07:25.246Z,14.48
2018-06-14T00:09:53.679Z,14.44
2018-06-14T00:12:22.092Z,14.43
2018-06-14T00:14:50.552Z,14.35
2018-06-14T00:17:19.130Z,14.33
2018-06-14T00:19:47.498Z,14.27
2018-06-14T00:22:15.960Z,14.35
2018-06-14T00:24:44.424Z,14.36
2018-06-14T00:27:12.891Z,14.35
2018-06-14T00:29:41.596Z,14.25
2018-06-14T00:32:10.024Z,14.27
2018-06-14T00:34:38.920Z,14.26
2018-06-14T00:37:07.470Z,14.17
2018-06-14T00:39:36.593Z,14.21
2018-06-14T00:42:05.426Z,14.27
2018-06-14T00:44:34.677Z,14.28
2018-06-14T00:47:03.172Z,14.36
2018-06-14T00:49:31.585Z,14.36
2018-06-14T00:52:00.023Z,14.31
2018-06-14T00:54:28.496Z,14.33
2018-06-14T00:57:08.142Z,14.24
2018-06-14T00:59:36.606Z,14.31
2018-06-14T01:02:05.029Z,14.30
2018-06-14T01:04:33.500Z,14.21
2018-06-14T01:07:02.115Z,14.30
2018-06-14T01:09:30.735Z,14.25
2018-06-14T01:11:59.183Z,14.27
2018-06-14T01:14:27.611Z,14.31
2018-06-14T01:16:56.028Z,14.24
2018-06-14T01:19:24.535Z,14.21
2018-06-14T01:21:52.942Z,14.27
2018-06-14T01:24:21.391Z,14.28
2018-06-14T01:26:49.961Z,14.25
2018-06-14T01:29:18.407Z,14.28
2018-06-14T01:31:46.880Z,14.25
2018-06-14T01:34:15.380Z,14.28
2018-06-14T01:36:43.867Z,14.35
2018-06-14T01:39:12.300Z,14.34
2018-06-14T01:41:40.809Z,14.36
2018-06-14T01:44:09.184Z,14.37
2018-06-14T01:46:37.600Z,14.45
2018-06-14T01:49:06.359Z,14.37
2018-06-14T01:51:34.800Z,14.46
2018-06-14T01:54:03.272Z,14.55
2018-06-14T01:56:31.672Z,14.39
2018-06-14T01:59:00.551Z,14.57
2018-06-14T02:01:29.059Z,14.55
2018-06-14T02:03:57.524Z,14.56
2018-06-14T02:06:25.992Z,14.59
2018-06-14T02:08:54.449Z,14.52
2018-06-14T02:11:22.869Z,14.57
2018-06-14T02:13:51.331Z,14.62
2018-06-14T02:16:19.774Z,14.62
2018-06-14T02:18:48.243Z,14.67
2018-06-14T02:21:16.698Z,14.58
2018-06-14T02:23:45.148Z,14.62
2018-06-14T02:26:13.654Z,14.63
2018-06-14T02:28:42.100Z,14.66
2018-06-14T02:31:10.572Z,14.67
2018-06-14T02:33:38.984Z,14.71
2018-06-14T02:36:07.835Z,14.69
2018-06-14T02:38:36.324Z,14.75
2018-06-14T02:41:04.926Z,14.73
2018-06-14T02:43:33.624Z,14.79
2018-06-14T02:46:02.053Z,14.70
2018-06-14T02:48:30.540Z,14.72
2018-06-14T02:50:58.999Z,14.75
2018-06-14T02:53:27.425Z,14.77
2018-06-14T02:55:55.896Z,14.68
2018-06-14T02:58:24.301Z,14.94
2018-06-14T03:00:52.769Z,14.96
2018-06-14T03:03:21.294Z,15.25
2018-06-14T03:05:49.847Z,15.13
2018-06-14T03:08:18.260Z,15.04
2018-06-14T03:10:46.692Z,14.97
2018-06-14T03:13:15.147Z,15.00
2018-06-14T03:15:43.599Z,15.17
2018-06-14T03:18:12.294Z,15.76
2018-06-14T03:20:40.701Z,15.33
2018-06-14T03:23:09.184Z,14.91
2018-06-14T03:25:37.659Z,14.79
2018-06-14T03:28:06.125Z,14.76
2018-06-14T03:30:34.640Z,14.80
2018-06-14T03:33:03.089Z,14.68
2018-06-14T03:35:31.510Z,14.60
2018-06-14T03:38:00.139Z,14.79
2018-06-14T03:40:28.832Z,15.32
2018-06-14T03:42:57.316Z,14.87
2018-06-14T03:45:30.482Z,14.86
2018-06-14T03:47:58.955Z,14.95
2018-06-14T03:50:27.420Z,15.09
2018-06-14T03:52:55.854Z,15.07
2018-06-14T03:55:24.298Z,14.95
2018-06-14T03:57:53.000Z,14.26
2018-06-14T04:00:21.453Z,14.84
2018-06-14T04:02:49.892Z,14.96
2018-06-14T04:05:18.331Z,14.89
2018-06-14T04:07:46.743Z,14.90
2018-06-14T04:10:15.169Z,15.16
2018-06-14T04:12:43.590Z,14.80
2018-06-14T04:15:12.209Z,14.68
2018-06-14T04:17:40.677Z,14.73
2018-06-14T04:20:09.091Z,14.91
2018-06-14T04:22:37.728Z,14.82
2018-06-14T04:25:06.193Z,14.82
2018-06-14T04:27:34.622Z,14.80
2018-06-14T04:30:03.102Z,14.74
2018-06-14T04:32:32.408Z,14.58
2018-06-14T04:35:01.175Z,14.78
2018-06-14T04:37:29.607Z,15.08
2018-06-14T04:39:58.028Z,15.11
2018-06-14T04:42:26.507Z,14.98
2018-06-14T04:44:54.919Z,14.71
2018-06-14T04:47:23.339Z,14.92
2018-06-14T04:49:51.779Z,15.07
2018-06-14T04:52:20.216Z,15.15
2018-06-14T04:54:49.112Z,15.30
2018-06-14T04:57:18.599Z,15.28
2018-06-14T04:59:47.024Z,14.65
2018-06-14T05:02:16.059Z,15.00
2018-06-14T05:04:44.779Z,14.86
2018-06-14T05:07:13.275Z,14.93
2018-06-14T05:09:41.676Z,14.84
2018-06-14T05:12:10.460Z,14.90
2018-06-14T05:14:38.991Z,15.15
2018-06-14T05:17:07.637Z,14.96
2018-06-14T05:19:36.110Z,15.03
2018-06-14T05:22:04.555Z,14.76
2018-06-14T05:24:33.021Z,14.77
2018-06-14T05:27:01.758Z,14.99
2018-06-14T05:29:30.175Z,14.89
2018-06-14T05:31:58.668Z,14.94
2018-06-14T05:34:27.083Z,14.91
2018-06-14T05:36:55.499Z,14.99
2018-06-14T05:39:23.947Z,15.08
2018-06-14T05:41:52.408Z,15.06
2018-06-14T05:44:20.854Z,15.33
2018-06-14T05:46:49.502Z,15.69
2018-06-14T05:49:17.964Z,15.89
2018-06-14T05:51:46.394Z,15.49
2018-06-14T05:54:14.835Z,15.80
2018-06-14T05:56:43.444Z,15.98
2018-06-14T05:59:11.948Z,16.00
2018-06-14T06:01:40.405Z,15.98
2018-06-14T06:04:08.832Z,16.41
2018-06-14T06:06:37.404Z,15.36
2018-06-14T06:09:09.086Z,15.70
2018-06-14T06:11:37.667Z,16.27
2018-06-14T06:14:06.121Z,16.26
2018-06-14T06:16:34.569Z,15.92
2018-06-14T06:19:02.974Z,16.40
2018-06-14T06:21:31.683Z,16.34
2018-06-14T06:24:00.147Z,16.50
2018-06-14T06:26:28.568Z,16.11
2018-06-14T06:28:56.948Z,16.26
2018-06-14T06:31:25.541Z,16.65
2018-06-14T06:33:54.239Z,16.70
2018-06-14T06:36:22.690Z,16.48
2018-06-14T06:38:51.138Z,16.54
2018-06-14T06:41:19.564Z,16.62
2018-06-14T06:43:47.997Z,16.92
2018-06-14T06:46:16.461Z,16.81
2018-06-14T06:48:45.115Z,16.87
2018-06-14T06:51:13.534Z,16.93
2018-06-14T06:53:42.164Z,16.96
2018-06-14T06:56:10.620Z,17.30
2018-06-14T06:58:39.088Z,17.35
2018-06-14T07:01:07.543Z,17.61
2018-06-14T07:03:36.071Z,17.31
2018-06-14T07:06:04.590Z,17.54
2018-06-14T07:08:32.976Z,17.74
2018-06-14T07:11:01.416Z,17.39
2018-06-14T07:13:30.327Z,17.38
2018-06-14T07:15:58.815Z,17.46
2018-06-14T07:18:27.261Z,17.00
2018-06-14T07:20:55.903Z,17.42
2018-06-14T07:23:24.333Z,17.04
2018-06-14T07:25:52.947Z,17.03
2018-06-14T07:28:21.390Z,16.77
2018-06-14T07:30:49.866Z,16.60
2018-06-14T07:34:47.693Z,16.52
2018-06-14T07:37:16.160Z,16.61
2018-06-14T07:39:44.640Z,16.58
2018-06-14T07:42:13.097Z,16.63
2018-06-14T07:44:41.499Z,16.48
2018-06-14T07:47:09.948Z,16.60
2018-06-14T07:49:38.371Z,16.48
2018-06-14T07:52:06.774Z,16.27
2018-06-14T07:54:35.198Z,16.48
2018-06-14T07:57:03.647Z,16.57
2018-06-14T07:59:32.125Z,16.61
2018-06-14T08:03:29.994Z,16.53
2018-06-14T08:05:58.415Z,16.55
2018-06-14T08:08:26.817Z,16.76
2018-06-14T08:10:55.224Z,16.90
2018-06-14T08:13:23.644Z,17.03
2018-06-14T08:15:52.104Z,17.40
2018-06-14T08:18:20.563Z,17.19
2018-06-14T08:20:48.979Z,17.56
2018-06-14T08:23:17.398Z,17.47
2018-06-14T08:25:45.823Z,17.98
2018-06-14T08:28:14.234Z,18.02
2018-06-14T08:30:42.916Z,18.34
2018-06-14T08:33:11.572Z,18.16
2018-06-14T08:35:40.020Z,18.12
2018-06-14T08:38:08.544Z,18.15
2018-06-14T08:40:37.029Z,18.57
2018-06-14T08:43:05.479Z,18.40
2018-06-14T08:45:33.879Z,18.50
2018-06-14T08:48:02.293Z,18.22
2018-06-14T08:52:00.102Z,18.80
2018-06-14T08:54:28.535Z,18.69
2018-06-14T08:56:57.279Z,19.52
2018-06-14T08:59:25.679Z,19.75
2018-06-14T09:01:54.134Z,19.98
2018-06-14T09:04:22.534Z,19.69
2018-06-14T09:06:50.974Z,19.85
2018-06-14T09:09:19.377Z,19.71
2018-06-14T09:11:47.780Z,19.61
2018-06-14T09:14:16.342Z,19.77
2018-06-14T09:16:44.780Z,19.48
2018-06-14T09:19:13.244Z,19.96
2018-06-14T09:21:41.739Z,19.82
2018-06-14T09:24:10.188Z,19.31
2018-06-14T09:26:39.020Z,20.00
2018-06-14T09:29:07.455Z,19.74
2018-06-14T09:31:35.880Z,20.07
2018-06-14T09:34:04.372Z,19.30
2018-06-14T09:36:33.862Z,19.45
2018-06-14T09:39:02.851Z,19.02
2018-06-14T09:41:31.302Z,19.64
2018-06-14T09:43:59.684Z,19.68
2018-06-14T09:46:28.112Z,19.25
2018-06-14T09:49:01.883Z,18.54
2018-06-14T09:51:30.295Z,18.99
2018-06-14T09:53:58.980Z,19.05
2018-06-14T09:56:27.659Z,18.71
2018-06-14T09:58:56.072Z,18.20
2018-06-14T10:01:24.525Z,18.75
2018-06-14T10:03:52.949Z,18.84
2018-06-14T10:06:21.364Z,18.61
2018-06-14T10:08:49.754Z,18.72
2018-06-14T10:11:18.182Z,18.62
2018-06-14T10:13:46.550Z,18.79
2018-06-14T10:16:15.499Z,19.02
2018-06-14T10:18:43.972Z,18.91
2018-06-14T10:21:12.695Z,19.22
2018-06-14T10:23:41.112Z,18.93
2018-06-14T10:26:09.769Z,19.37
2018-06-14T10:28:38.168Z,18.96
2018-06-14T10:31:06.783Z,19.03
2018-06-14T10:33:35.159Z,19.67
2018-06-14T10:36:03.644Z,19.43
2018-06-14T10:38:32.133Z,19.49
2018-06-14T10:41:00.555Z,19.11
2018-06-14T10:43:28.997Z,19.73
2018-06-14T10:45:57.391Z,19.96
2018-06-14T10:48:26.044Z,20.07
2018-06-14T10:50:54.782Z,20.55
2018-06-14T10:53:23.188Z,20.42
2018-06-14T10:55:51.620Z,20.83
2018-06-14T10:58:20.037Z,20.67
2018-06-14T11:00:48.768Z,21.37
2018-06-14T11:03:17.197Z,21.92
2018-06-14T11:05:45.626Z,22.14
2018-06-14T11:08:14.047Z,21.54
2018-06-14T11:10:42.439Z,21.61
2018-06-14T11:13:10.878Z,21.37
2018-06-14T11:15:39.621Z,21.59
2018-06-14T11:18:08.049Z,21.09
2018-06-14T11:20:36.456Z,21.53
2018-06-14T11:23:04.886Z,21.19
2018-06-14T11:25:33.330Z,20.62
2018-06-14T11:28:01.726Z,20.78
2018-06-14T11:30:30.395Z,20.93
2018-06-14T11:32:58.794Z,21.69
2018-06-14T11:35:27.211Z,22.06
2018-06-14T11:37:55.690Z,22.80
2018-06-14T11:40:24.111Z,21.91
2018-06-14T11:42:52.575Z,23.44
2018-06-14T11:45:20.987Z,23.83
2018-06-14T11:47:49.419Z,23.74
2018-06-14T11:50:17.848Z,22.35
2018-06-14T11:52:46.256Z,23.41
2018-06-14T11:55:14.695Z,23.09
2018-06-14T11:57:43.163Z,23.83
2018-06-14T12:00:11.995Z,24.02
2018-06-14T12:02:40.696Z,24.71
2018-06-14T12:05:09.098Z,25.51
2018-06-14T12:07:37.541Z,25.31
2018-06-14T12:10:06.139Z,25.18
2018-06-14T12:12:34.601Z,25.08
2018-06-14T12:15:03.072Z,23.26
2018-06-14T12:17:31.437Z,25.72
2018-06-14T12:19:59.855Z,26.44
2018-06-14T12:22:28.400Z,26.85
2018-06-14T12:24:56.818Z,24.19
2018-06-14T12:27:25.447Z,24.43
2018-06-14T12:29:53.839Z,24.99
2018-06-14T12:32:22.220Z,25.68
2018-06-14T12:34:50.752Z,26.52
2018-06-14T12:37:19.163Z,25.08
2018-06-14T12:39:47.587Z,27.07
2018-06-14T12:42:16.092Z,28.16
2018-06-14T12:44:44.512Z,26.98
2018-06-14T12:47:13.117Z,24.60
2018-06-14T12:49:41.549Z,23.83
2018-06-14T12:52:09.948Z,23.76
2018-06-14T12:54:38.594Z,24.05
2018-06-14T12:57:06.980Z,23.40
2018-06-14T12:59:35.392Z,23.28
2018-06-14T13:02:03.808Z,22.57
2018-06-14T13:04:32.406Z,22.98
2018-06-14T13:07:00.838Z,23.57
2018-06-14T13:09:29.238Z,23.05
2018-06-14T13:11:57.683Z,23.71
2018-06-14T13:14:26.052Z,23.34
2018-06-14T13:16:54.483Z,24.46
2018-06-14T13:19:22.867Z,25.44
2018-06-14T13:21:51.280Z,23.48
2018-06-14T13:24:19.680Z,23.24
2018-06-14T13:26:48.181Z,24.78
2018-06-14T13:29:16.628Z,25.51
2018-06-14T13:31:45.040Z,24.16
2018-06-14T13:34:13.448Z,25.72
2018-06-14T13:36:42.204Z,26.79
2018-06-14T13:39:10.827Z,27.27
2018-06-14T13:41:39.331Z,26.33
2018-06-14T13:44:07.829Z,25.98
2018-06-14T13:46:40.064Z,26.97
2018-06-14T13:49:08.888Z,27.63
2018-06-14T13:51:37.439Z,29.38
2018-06-14T13:54:05.864Z,27.67
2018-06-14T13:56:34.525Z,26.06
2018-06-14T13:59:03.194Z,23.93
2018-06-14T14:01:31.623Z,22.46
2018-06-14T14:04:00.420Z,23.34
2018-06-14T14:06:29.292Z,23.91
2018-06-14T14:08:57.961Z,21.50
2018-06-14T14:11:26.386Z,23.59
2018-06-14T14:13:55.041Z,22.54
2018-06-14T14:16:23.450Z,22.84
2018-06-14T14:18:52.091Z,22.36
2018-06-14T14:21:20.494Z,22.40
2018-06-14T14:23:48.950Z,22.43
2018-06-14T14:26:17.338Z,22.26
2018-06-14T14:28:45.970Z,23.73
2018-06-14T14:31:14.675Z,24.06
2018-06-14T14:33:43.111Z,23.68
2018-06-14T14:36:11.505Z,25.55
2018-06-14T14:38:39.992Z,25.58
2018-06-14T14:41:08.578Z,24.48
2018-06-14T14:43:36.984Z,24.50
2018-06-14T14:46:05.558Z,25.77
2018-06-14T14:48:34.243Z,26.85
2018-06-14T14:51:02.847Z,23.83
2018-06-14T14:53:31.314Z,24.54
2018-06-14T14:55:59.760Z,24.54
2018-06-14T14:58:28.217Z,25.08
2018-06-14T15:00:56.633Z,25.16
2018-06-14T15:03:25.089Z,24.98
2018-06-14T15:05:53.511Z,24.73
2018-06-14T15:08:21.965Z,25.30
2018-06-14T15:10:50.391Z,24.25
2018-06-14T15:13:18.791Z,23.98
2018-06-14T15:15:47.395Z,22.47
2018-06-14T15:18:15.846Z,22.79
2018-06-14T15:20:44.402Z,23.88
2018-06-14T15:23:12.868Z,23.37
2018-06-14T15:25:41.268Z,22.67
2018-06-14T15:28:09.736Z,22.82
2018-06-14T15:30:38.120Z,23.45
2018-06-14T15:33:06.599Z,23.14
2018-06-14T15:35:35.091Z,23.44
2018-06-14T15:38:03.492Z,22.94
2018-06-14T15:40:32.303Z,23.89
2018-06-14T15:43:00.764Z,24.31
2018-06-14T15:45:29.188Z,24.32
2018-06-14T15:47:58.251Z,24.42
2018-06-14T15:50:26.724Z,24.26
2018-06-14T15:52:55.368Z,24.45
2018-06-14T15:55:33.777Z,25.80
2018-06-14T15:58:02.245Z,27.20
2018-06-14T16:00:30.655Z,26.50
2018-06-14T16:02:59.062Z,24.78
2018-06-14T16:05:27.649Z,25.83
2018-06-14T16:07:56.075Z,24.78
2018-06-14T16:10:24.470Z,26.59
2018-06-14T16:12:52.888Z,26.05
2018-06-14T16:15:21.303Z,24.97
2018-06-14T16:17:49.724Z,24.09
2018-06-14T16:20:18.197Z,23.16
2018-06-14T16:22:46.622Z,24.20
2018-06-14T16:25:15.051Z,23.85
2018-06-14T16:27:43.526Z,23.55
2018-06-14T16:30:11.984Z,25.03
2018-06-14T16:32:40.711Z,23.48
2018-06-14T16:35:09.181Z,24.04
2018-06-14T16:37:37.647Z,23.09
2018-06-14T16:40:06.114Z,22.66
2018-06-14T16:42:34.873Z,22.37
2018-06-14T16:45:03.349Z,21.74
2018-06-14T16:47:31.860Z,21.80
2018-06-14T16:50:00.276Z,22.57
2018-06-14T16:52:28.755Z,21.57
2018-06-14T16:54:57.221Z,21.61
2018-06-14T16:57:25.638Z,21.98
2018-06-14T16:59:54.136Z,21.25
2018-06-14T17:02:22.783Z,20.92
2018-06-14T17:04:51.499Z,20.86
2018-06-14T17:07:19.916Z,20.18
2018-06-14T17:09:48.970Z,20.52
2018-06-14T17:12:17.440Z,20.54
2018-06-14T17:14:45.847Z,20.53
2018-06-14T17:17:14.505Z,20.74
2018-06-14T17:19:43.009Z,21.09
2018-06-14T17:22:11.469Z,20.54
2018-06-14T17:24:40.024Z,20.32
2018-06-14T17:27:08.997Z,19.92
2018-06-14T17:29:37.502Z,19.97
2018-06-14T17:32:05.958Z,20.65
2018-06-14T17:34:34.385Z,21.13
2018-06-14T17:37:02.822Z,21.51
2018-06-14T17:39:31.890Z,22.14
2018-06-14T17:42:00.477Z,21.65
2018-06-14T17:44:29.045Z,22.11
2018-06-14T17:46:57.707Z,21.18
2018-06-14T17:49:26.107Z,20.93
2018-06-14T17:51:54.511Z,21.08
2018-06-14T17:54:22.909Z,20.39
2018-06-14T17:56:51.604Z,19.93
2018-06-14T17:59:19.983Z,20.10
2018-06-14T18:01:48.620Z,20.39
2018-06-14T18:04:17.282Z,21.14
2018-06-14T18:06:46.022Z,20.68
2018-06-14T18:09:14.455Z,20.83
2018-06-14T18:11:42.868Z,21.47
2018-06-14T18:14:11.444Z,21.49
2018-06-14T18:16:40.124Z,21.89
2018-06-14T18:19:08.719Z,21.27
2018-06-14T18:21:37.203Z,21.00
2018-06-14T18:24:05.655Z,21.21
2018-06-14T18:26:34.090Z,20.54
2018-06-14T18:29:02.562Z,20.74
2018-06-14T18:31:31.330Z,21.22
2018-06-14T18:33:59.768Z,20.73
2018-06-14T18:36:28.431Z,20.51
2018-06-14T18:38:56.883Z,20.09
2018-06-14T18:41:25.516Z,19.67
2018-06-14T18:43:54.112Z,19.38
2018-06-14T18:46:22.511Z,19.28
2018-06-14T18:48:51.270Z,19.36
2018-06-14T18:51:19.702Z,19.31
2018-06-14T18:53:48.095Z,18.97
2018-06-14T18:56:16.664Z,18.92
2018-06-14T18:58:45.102Z,18.91
2018-06-14T19:01:13.580Z,18.86
2018-06-14T19:03:42.101Z,18.87
2018-06-14T19:06:10.498Z,18.68
2018-06-14T19:08:39.055Z,18.70
2018-06-14T19:11:07.807Z,18.43
2018-06-14T19:13:36.252Z,18.49
2018-06-14T19:16:04.708Z,18.56
2018-06-14T19:18:33.137Z,18.82
2018-06-14T19:21:01.603Z,18.61
2018-06-14T19:23:30.791Z,18.88
2018-06-14T19:25:59.250Z,18.79
2018-06-14T19:28:27.714Z,18.59
2018-06-14T19:30:56.126Z,18.49
2018-06-14T19:33:24.918Z,18.31
2018-06-14T19:35:53.319Z,18.25
2018-06-14T19:38:21.766Z,18.19
2018-06-14T19:40:50.164Z,18.33
2018-06-14T19:43:18.566Z,18.10
2018-06-14T19:45:47.032Z,18.28
2018-06-14T19:48:15.411Z,18.35
2018-06-14T19:50:43.842Z,18.27
2018-06-14T19:53:12.252Z,18.33
2018-06-14T19:55:40.679Z,18.14
2018-06-14T19:58:09.161Z,17.97
2018-06-14T20:00:37.572Z,17.83
2018-06-14T20:03:06.513Z,18.02
2018-06-14T20:05:34.955Z,18.07
2018-06-14T20:08:03.380Z,18.08
2018-06-14T20:10:31.812Z,17.99
2018-06-14T20:13:00.215Z,18.04
2018-06-14T20:15:28.916Z,17.97
2018-06-14T20:17:57.348Z,18.10
2018-06-14T20:20:25.798Z,17.94
2018-06-14T20:22:54.520Z,17.67
2018-06-14T20:25:23.546Z,17.78
2018-06-14T20:27:52.008Z,17.65
2018-06-14T20:30:20.410Z,17.66
2018-06-14T20:32:49.004Z,17.84
2018-06-14T20:35:17.454Z,17.87
2018-06-14T20:37:45.887Z,17.73
2018-06-14T20:40:14.315Z,17.48
2018-06-14T20:42:42.772Z,17.63
2018-06-14T20:45:11.268Z,17.48
2018-06-14T20:47:39.715Z,17.65
2018-06-14T20:50:08.412Z,17.59
2018-06-14T20:52:36.811Z,17.63
2018-06-14T20:55:05.371Z,17.49
2018-06-14T20:57:34.850Z,17.57
2018-06-14T21:00:03.560Z,17.66
2018-06-14T21:02:32.684Z,17.52
2018-06-14T21:05:01.603Z,17.71
2018-06-14T21:07:30.147Z,17.69
2018-06-14T21:09:58.596Z,17.63
2018-06-14T21:12:27.681Z,17.75
2018-06-14T21:14:56.094Z,17.74
2018-06-14T21:17:24.610Z,17.79
2018-06-14T21:19:53.260Z,17.82
2018-06-14T21:22:21.984Z,17.55
2018-06-14T21:24:50.491Z,17.55
2018-06-14T21:27:18.957Z,17.56
2018-06-14T21:29:47.399Z,17.73
2018-06-14T21:32:15.829Z,17.62
2018-06-14T21:34:44.294Z,17.86
2018-06-14T21:37:12.704Z,17.75
2018-06-14T21:39:41.095Z,17.60
2018-06-14T21:42:09.576Z,17.59
2018-06-14T21:44:38.038Z,17.51
2018-06-14T21:47:07.551Z,17.55
2018-06-14T21:49:36.645Z,17.46
2018-06-14T21:52:05.172Z,17.61
2018-06-14T21:54:33.763Z,17.54
2018-06-14T21:57:02.294Z,17.39
2018-06-14T21:59:30.794Z,17.51
2018-06-14T22:01:59.199Z,17.36
2018-06-14T22:04:27.628Z,17.27
2018-06-14T22:06:56.138Z,17.36
2018-06-14T22:09:24.556Z,17.31
2018-06-14T22:11:53.084Z,17.06
2018-06-14T22:14:21.668Z,17.00
2018-06-14T22:16:50.091Z,17.05
2018-06-14T22:19:18.527Z,16.93
2018-06-14T22:21:46.947Z,16.98
2018-06-14T22:24:15.381Z,17.06
2018-06-14T22:26:43.807Z,17.01
2018-06-14T22:29:12.234Z,16.91
2018-06-14T22:31:40.659Z,16.97
2018-06-14T22:36:17.123Z,16.98
2018-06-14T22:38:46.237Z,16.81
2018-06-14T22:41:14.652Z,16.83
2018-06-14T22:43:43.240Z,16.89
2018-06-14T22:46:11.696Z,16.79
2018-06-14T22:48:40.152Z,16.78
2018-06-14T22:51:19.640Z,16.64
2018-06-14T22:53:48.620Z,16.84
2018-06-14T22:56:17.331Z,16.83
2018-06-14T22:58:46.251Z,16.66
2018-06-14T23:01:39.614Z,16.64
2018-06-14T23:04:09.458Z,16.71
2018-06-14T23:06:37.880Z,16.56
2018-06-14T23:09:13.690Z,16.64
2018-06-14T23:11:42.517Z,16.60
2018-06-14T23:14:10.979Z,16.65
2018-06-14T23:16:39.398Z,16.63
2018-06-14T23:19:08.306Z,16.65
2018-06-14T23:21:36.732Z,16.70
2018-06-14T23:24:05.195Z,16.70
2018-06-14T23:26:33.678Z,16.63
2018-06-14T23:29:02.128Z,16.73
2018-06-14T23:31:30.599Z,16.66
2018-06-14T23:33:59.036Z,16.86
2018-06-14T23:36:27.728Z,16.81
2018-06-14T23:38:56.173Z,16.78
2018-06-14T23:41:24.591Z,16.84
2018-06-14T23:43:53.104Z,16.84
2018-06-14T23:46:21.552Z,16.78
2018-06-14T23:48:49.979Z,16.75
2018-06-14T23:51:18.406Z,16.79
2018-06-14T23:53:46.804Z,16.78
2018-06-14T23:56:15.292Z,16.83
2018-06-14T23:58:43.999Z,16.76
